Explorer Of The Seas — C6SE4 — position and weather

sailwx.info

Track history (hours):
 
Tides and Currents Weather Stations Pressure Air Temp Water Temp Dewpoint Dewpoint Depression Visibility Wind Speed Wind Dir Waves Ship Positions

Explorer Of The Seas

Operator: Royal Caribbean Cruises Ltd

Last reported at 2016-Jul-29 13:31 UTC. Time now 2016-Jul-29 13:54 UTC.
Position N 47°38' W 122°23'.

Length 311 m; draft 9.2 m.

Type: Passenger vessel. MMSI: 311316000.

Date/timePositionNaut miles runAvg speedWind from/ knotsBaromVisibWave heightAir tempDewpointWater temp
2016-Jul-29 13:31N 47°38' W 122°23'0 0.0
2016-Jul-29 12:33N 47°38' W 122°23'6 5.9
2016-Jul-29 11:33N 47°42' W 122°28'1313.3
2016-Jul-29 10:34N 47°56' W 122°31'1313.2
2016-Jul-29 09:32N 48°07' W 122°41'1313.3
2016-Jul-29 08:33N 48°12' W 122°60'1413.8
2016-Jul-29 07:33N 48°11' W 123°20'9 9.5
2016-Jul-29 06:33N 48°13' W 123°34'8 7.8
2016-Jul-29 05:32N 48°13' W 123°46'7 5.7
2016-Jul-29 04:23N 48°17' W 123°54'7 7.5
2016-Jul-29 03:29N 48°16' W 123°44'7 7.7
2016-Jul-29 02:33N 48°15' W 123°33'7 7.0
2016-Jul-29 01:34N 48°20' W 123°26'5 4.6
2016-Jul-29 00:29N 48°25' W 123°24'0 0.0
2016-Jul-28 23:32N 48°25' W 123°24'0 0.0
2016-Jul-28 22:32N 48°25' W 123°24'0 0.0
2016-Jul-28 21:32N 48°25' W 123°24'0 0.0
2016-Jul-28 20:32N 48°25' W 123°24'0 0.0
2016-Jul-28 19:32N 48°25' W 123°24'0 0.0
2016-Jul-28 18:32N 48°25' W 123°24'0 0.0
2016-Jul-28 17:32N 48°25' W 123°24'0 0.0
2016-Jul-28 16:32N 48°25' W 123°24'0 0.0
2016-Jul-28 15:32N 48°25' W 123°24'6 5.8
2016-Jul-28 14:33N 48°19' W 123°25'1513.7
2016-Jul-28 13:29N 48°13' W 123°45'1617.5
2016-Jul-28 12:33N 48°18' W 124°08'1817.6
2016-Jul-28 11:33N 48°25' W 124°32'1717.1
2016-Jul-28 10:33N 48°29' W 124°57'1817.7
2016-Jul-28 09:33N 48°32' W 125°24'1918.8
2016-Jul-28 08:33N 48°43' W 125°47'1919.0
2016-Jul-28 07:33N 48°54' W 126°10'2019.9
2016-Jul-28 06:33N 49°06' W 126°35'2120.4
2016-Jul-28 05:33N 49°18' W 126°60'  
2016-Jul-23 10:29N 49°19' W 127°01'2221.9
2016-Jul-23 09:29N 49°06' W 126°34'2022.1
2016-Jul-23 08:33N 48°53' W 126°09'2222.1
2016-Jul-23 07:33N 48°40' W 125°42'2422.2
2016-Jul-23 06:30N 48°31' W 125°09'4422.8
2016-Jul-23 04:34N 48°20' W 124°05'2221.9
2016-Jul-23 03:33N 48°15' W 123°33'1413.9
2016-Jul-23 02:33N 48°11' W 123°13'2117.9
2016-Jul-23 01:23N 48°08' W 122°42'1517.9
2016-Jul-23 00:33N 47°56' W 122°30'1818.2
2016-Jul-22 23:33N 47°38' W 122°25'2 1.6
2016-Jul-22 22:31N 47°38' W 122°23'0 0.0
2016-Jul-22 21:31N 47°38' W 122°23'0 0.0
2016-Jul-22 20:31N 47°38' W 122°23'0 0.0
2016-Jul-22 19:32N 47°38' W 122°23'0 0.0
2016-Jul-22 18:29N 47°38' W 122°23'0 0.0
2016-Jul-22 17:32N 47°38' W 122°23'0 0.0
2016-Jul-22 16:32N 47°38' W 122°23'0 0.0
2016-Jul-22 15:32N 47°38' W 122°23'0 0.0
2016-Jul-22 14:32N 47°38' W 122°23'0 0.0
2016-Jul-22 13:32N 47°38' W 122°23'0 0.0
2016-Jul-22 12:33N 47°38' W 122°23'6 6.0
2016-Jul-22 11:33N 47°43' W 122°28'1313.3
2016-Jul-22 10:33N 47°56' W 122°31'1513.1
2016-Jul-22 09:26N 48°08' W 122°43'1213.7
2016-Jul-22 08:33N 48°11' W 123°00'1414.0
2016-Jul-22 07:33N 48°10' W 123°21'23 7.4
2016-Jul-22 04:25N 48°17' W 123°54'7 7.8
2016-Jul-22 03:33N 48°16' W 123°44'8 8.0
2016-Jul-22 02:33N 48°15' W 123°32'8 7.6
2016-Jul-22 01:33N 48°21' W 123°25'4 3.9
2016-Jul-22 00:31N 48°25' W 123°24'0 0.0
2016-Jul-21 23:31N 48°25' W 123°24'0 0.0
2016-Jul-21 22:31N 48°25' W 123°24'0 0.0
2016-Jul-21 21:31N 48°25' W 123°24'0 0.0
2016-Jul-21 20:31N 48°25' W 123°24'0 0.0
2016-Jul-21 19:31N 48°25' W 123°24'0 0.0
2016-Jul-21 18:31N 48°25' W 123°24'0 0.0
2016-Jul-21 17:31N 48°25' W 123°24'0 0.0
2016-Jul-21 16:31N 48°25' W 123°24'0 0.0
2016-Jul-21 15:31N 48°25' W 123°24'6 5.8
2016-Jul-21 14:33N 48°19' W 123°25'1111.1
2016-Jul-21 13:33N 48°14' W 123°39'1514.7
2016-Jul-21 12:33N 48°15' W 124°01'1515.2
2016-Jul-21 11:33N 48°22' W 124°22'1515.0
2016-Jul-21 10:34N 48°28' W 124°42'1818.1
2016-Jul-21 09:34N 48°29' W 125°09'1817.6
2016-Jul-21 08:34N 48°37' W 125°33'1818.0
2016-Jul-21 07:34N 48°47' W 125°56'1818.5
2016-Jul-21 06:34N 48°58' W 126°18'1818.3
2016-Jul-21 05:34N 49°09' W 126°41'1818.3
2016-Jul-21 04:33N 49°20' W 127°03'  
Track history (hours):
 
Tides and Currents Weather Stations Pressure Air Temp Water Temp Dewpoint Dewpoint Depression Visibility Wind Speed Wind Dir Waves Ship Positions

Explorer Of The Seas

Operator: Royal Caribbean Cruises Ltd

Last reported at 2016-Jul-29 13:31 UTC. Time now 2016-Jul-29 13:54 UTC.
Position N 47°38' W 122°23'.

Length 311 m; draft 9.2 m.

Type: Passenger vessel. MMSI: 311316000.

Date/timePositionNaut miles runAvg speedWind from/ knotsBaromVisibWave heightAir tempDewpointWater temp
2016-Jul-29 13:31N 47°38' W 122°23'0 0.0
2016-Jul-29 12:33N 47°38' W 122°23'6 5.9
2016-Jul-29 11:33N 47°42' W 122°28'1313.3
2016-Jul-29 10:34N 47°56' W 122°31'1313.2
2016-Jul-29 09:32N 48°07' W 122°41'1313.3
2016-Jul-29 08:33N 48°12' W 122°60'1413.8
2016-Jul-29 07:33N 48°11' W 123°20'9 9.5
2016-Jul-29 06:33N 48°13' W 123°34'8 7.8
2016-Jul-29 05:32N 48°13' W 123°46'7 5.7
2016-Jul-29 04:23N 48°17' W 123°54'7 7.5
2016-Jul-29 03:29N 48°16' W 123°44'7 7.7
2016-Jul-29 02:33N 48°15' W 123°33'7 7.0
2016-Jul-29 01:34N 48°20' W 123°26'5 4.6
2016-Jul-29 00:29N 48°25' W 123°24'0 0.0
2016-Jul-28 23:32N 48°25' W 123°24'0 0.0
2016-Jul-28 22:32N 48°25' W 123°24'0 0.0
2016-Jul-28 21:32N 48°25' W 123°24'0 0.0
2016-Jul-28 20:32N 48°25' W 123°24'0 0.0
2016-Jul-28 19:32N 48°25' W 123°24'0 0.0
2016-Jul-28 18:32N 48°25' W 123°24'0 0.0
2016-Jul-28 17:32N 48°25' W 123°24'0 0.0
2016-Jul-28 16:32N 48°25' W 123°24'0 0.0
2016-Jul-28 15:32N 48°25' W 123°24'6 5.8
2016-Jul-28 14:33N 48°19' W 123°25'1513.7
2016-Jul-28 13:29N 48°13' W 123°45'1617.5
2016-Jul-28 12:33N 48°18' W 124°08'1817.6
2016-Jul-28 11:33N 48°25' W 124°32'1717.1
2016-Jul-28 10:33N 48°29' W 124°57'1817.7
2016-Jul-28 09:33N 48°32' W 125°24'1918.8
2016-Jul-28 08:33N 48°43' W 125°47'1919.0
2016-Jul-28 07:33N 48°54' W 126°10'2019.9
2016-Jul-28 06:33N 49°06' W 126°35'2120.4
2016-Jul-28 05:33N 49°18' W 126°60'  
2016-Jul-23 10:29N 49°19' W 127°01'2221.9
2016-Jul-23 09:29N 49°06' W 126°34'2022.1
2016-Jul-23 08:33N 48°53' W 126°09'2222.1
2016-Jul-23 07:33N 48°40' W 125°42'2422.2
2016-Jul-23 06:30N 48°31' W 125°09'4422.8
2016-Jul-23 04:34N 48°20' W 124°05'2221.9
2016-Jul-23 03:33N 48°15' W 123°33'1413.9
2016-Jul-23 02:33N 48°11' W 123°13'2117.9
2016-Jul-23 01:23N 48°08' W 122°42'1517.9
2016-Jul-23 00:33N 47°56' W 122°30'1818.2
2016-Jul-22 23:33N 47°38' W 122°25'2 1.6
2016-Jul-22 22:31N 47°38' W 122°23'0 0.0
2016-Jul-22 21:31N 47°38' W 122°23'0 0.0
2016-Jul-22 20:31N 47°38' W 122°23'0 0.0
2016-Jul-22 19:32N 47°38' W 122°23'0 0.0
2016-Jul-22 18:29N 47°38' W 122°23'0 0.0
2016-Jul-22 17:32N 47°38' W 122°23'0 0.0
2016-Jul-22 16:32N 47°38' W 122°23'0 0.0
2016-Jul-22 15:32N 47°38' W 122°23'0 0.0
2016-Jul-22 14:32N 47°38' W 122°23'0 0.0
2016-Jul-22 13:32N 47°38' W 122°23'0 0.0
2016-Jul-22 12:33N 47°38' W 122°23'6 6.0
2016-Jul-22 11:33N 47°43' W 122°28'1313.3
2016-Jul-22 10:33N 47°56' W 122°31'1513.1
2016-Jul-22 09:26N 48°08' W 122°43'1213.7
2016-Jul-22 08:33N 48°11' W 123°00'1414.0
2016-Jul-22 07:33N 48°10' W 123°21'23 7.4
2016-Jul-22 04:25N 48°17' W 123°54'7 7.8
2016-Jul-22 03:33N 48°16' W 123°44'8 8.0
2016-Jul-22 02:33N 48°15' W 123°32'8 7.6
2016-Jul-22 01:33N 48°21' W 123°25'4 3.9
2016-Jul-22 00:31N 48°25' W 123°24'0 0.0
2016-Jul-21 23:31N 48°25' W 123°24'0 0.0
2016-Jul-21 22:31N 48°25' W 123°24'0 0.0
2016-Jul-21 21:31N 48°25' W 123°24'0 0.0
2016-Jul-21 20:31N 48°25' W 123°24'0 0.0
2016-Jul-21 19:31N 48°25' W 123°24'0 0.0
2016-Jul-21 18:31N 48°25' W 123°24'0 0.0
2016-Jul-21 17:31N 48°25' W 123°24'0 0.0
2016-Jul-21 16:31N 48°25' W 123°24'0 0.0
2016-Jul-21 15:31N 48°25' W 123°24'6 5.8
2016-Jul-21 14:33N 48°19' W 123°25'1111.1
2016-Jul-21 13:33N 48°14' W 123°39'1514.7
2016-Jul-21 12:33N 48°15' W 124°01'1515.2
2016-Jul-21 11:33N 48°22' W 124°22'1515.0
2016-Jul-21 10:34N 48°28' W 124°42'1818.1
2016-Jul-21 09:34N 48°29' W 125°09'1817.6
2016-Jul-21 08:34N 48°37' W 125°33'1818.0
2016-Jul-21 07:34N 48°47' W 125°56'1818.5
2016-Jul-21 06:34N 48°58' W 126°18'1818.3
2016-Jul-21 05:34N 49°09' W 126°41'1818.3
2016-Jul-21 04:33N 49°20' W 127°03'  

Dump ship's entire track history